Time;durP1;ratioP1;P1;durP2;ratioP2;P2;SDS_P1;SDS_P2;PMS_P1;PMS_P2;Temp;Humidity;BMP_temperature;BMP_pressure;BME280_temperature;BME280_humidity;BME280_pressure;Samples;Min_cycle;Max_cycle;Signal;HPM_P1;HPM_P2
2021/08/14 00:01:36;;;;;;;12.87;6.53;;;;;;;;;;4994186;28;20446;-78
2021/08/14 00:04:02;;;;;;;9.57;6.30;;;;;;;;;;4994001;28;20414;-79
2021/08/14 00:06:28;;;;;;;8.53;6.50;;;;;;;;;;4994040;28;20443;-79
2021/08/14 00:08:54;;;;;;;8.60;6.07;;;;;;;;;;4994077;28;20422;-78
2021/08/14 00:11:20;;;;;;;9.13;6.40;;;;;;;;;;4994094;28;20418;-78
2021/08/14 00:13:46;;;;;;;9.63;6.03;;;;;;;;;;4993745;28;20450;-79
2021/08/14 00:16:12;;;;;;;13.87;6.07;;;;;;;;;;4976700;28;20810;-78
2021/08/14 00:18:37;;;;;;;8.17;5.60;;;;;;;;;;4994109;28;20856;-78
2021/08/14 00:21:04;;;;;;;12.90;6.73;;;;;;;;;;4993923;28;20450;-78
2021/08/14 00:23:30;;;;;;;10.53;6.60;;;;;;;;;;4993673;28;20471;-79
2021/08/14 00:25:57;;;;;;;10.57;6.30;;;;;;;;;;4993660;28;21015;-78
2021/08/14 00:28:24;;;;;;;9.20;7.20;;;;;;;;;;4993938;28;20498;-78
2021/08/14 00:30:50;;;;;;;12.10;7.03;;;;;;;;;;4993806;28;20417;-79
2021/08/14 00:33:15;;;;;;;11.63;7.87;;;;;;;;;;4993779;28;20385;-79
2021/08/14 00:35:41;;;;;;;13.43;8.07;;;;;;;;;;4976352;28;20946;-78
2021/08/14 00:38:07;;;;;;;12.27;7.33;;;;;;;;;;4993952;28;20427;-77
2021/08/14 00:40:33;;;;;;;8.70;6.37;;;;;;;;;;4993941;28;20422;-78
2021/08/14 00:42:59;;;;;;;10.13;7.50;;;;;;;;;;4993451;28;20419;-79
2021/08/14 00:45:25;;;;;;;16.87;8.50;;;;;;;;;;4993627;28;20444;-79
2021/08/14 00:47:52;;;;;;;10.67;6.70;;;;;;;;;;4993778;28;20492;-78
2021/08/14 00:50:18;;;;;;;11.17;8.73;;;;;;;;;;4993793;28;20377;-79
2021/08/14 00:52:44;;;;;;;12.63;8.00;;;;;;;;;;4993367;28;20927;-80
2021/08/14 00:55:10;;;;;;;21.70;7.90;;;;;;;;;;4993484;28;20438;-78
2021/08/14 00:57:36;;;;;;;19.40;7.60;;;;;;;;;;4993630;28;20418;-78
2021/08/14 01:00:02;;;;;;;15.43;7.70;;;;;;;;;;4993705;28;20471;-78
2021/08/14 01:02:28;;;;;;;14.43;7.30;;;;;;;;;;4976466;28;20427;-78
2021/08/14 01:04:54;;;;;;;22.40;7.07;;;;;;;;;;4993132;28;20472;-79
2021/08/14 01:07:21;;;;;;;13.60;8.40;;;;;;;;;;4993500;28;20792;-78
2021/08/14 01:09:47;;;;;;;10.77;7.83;;;;;;;;;;4993634;28;20406;-78
2021/08/14 01:12:15;;;;;;;13.83;8.37;;;;;;;;;;4993502;28;20461;-79
2021/08/14 01:14:41;;;;;;;10.80;8.70;;;;;;;;;;4975543;28;20450;-79
2021/08/14 01:17:07;;;;;;;15.80;7.30;;;;;;;;;;4993327;28;20447;-78
2021/08/14 01:19:33;;;;;;;10.10;7.97;;;;;;;;;;4993386;28;20422;-80
2021/08/14 01:21:59;;;;;;;9.70;7.30;;;;;;;;;;4993465;28;20465;-78
2021/08/14 01:24:25;;;;;;;11.10;7.80;;;;;;;;;;4993041;28;20469;-79
2021/08/14 01:26:51;;;;;;;11.97;8.20;;;;;;;;;;4993268;28;20409;-78
2021/08/14 01:29:18;;;;;;;12.47;7.87;;;;;;;;;;4976054;28;20426;-79
2021/08/14 01:31:44;;;;;;;13.10;7.70;;;;;;;;;;4993340;28;20415;-79
2021/08/14 01:34:10;;;;;;;12.27;7.93;;;;;;;;;;4993102;28;20464;-79
2021/08/14 01:36:36;;;;;;;13.37;7.57;;;;;;;;;;4993120;28;20899;-79
2021/08/14 01:39:04;;;;;;;10.57;7.93;;;;;;;;;;4993293;28;20565;-79
2021/08/14 01:41:30;;;;;;;19.50;8.93;;;;;;;;;;4993228;28;20407;-78
2021/08/14 01:43:56;;;;;;;11.07;7.90;;;;;;;;;;4993007;28;20419;-79
2021/08/14 01:46:22;;;;;;;10.40;8.80;;;;;;;;;;4993973;28;20473;-79
2021/08/14 01:48:48;;;;;;;13.00;8.67;;;;;;;;;;4996754;28;20405;-78
2021/08/14 01:51:14;;;;;;;13.83;8.67;;;;;;;;;;4996845;28;20419;-78
2021/08/14 01:53:45;;;;;;;12.17;7.97;;;;;;;;;;4996280;28;20414;-78
2021/08/14 01:56:11;;;;;;;15.77;9.33;;;;;;;;;;4996641;28;20829;-79
2021/08/14 01:58:37;;;;;;;10.63;7.70;;;;;;;;;;4996388;28;20484;-77
2021/08/14 02:01:03;;;;;;;12.40;8.50;;;;;;;;;;4996438;28;20446;-78
2021/08/14 02:03:29;;;;;;;13.57;8.37;;;;;;;;;;4996056;28;20441;-79
2021/08/14 02:05:55;;;;;;;11.80;8.83;;;;;;;;;;4996197;28;20466;-79
2021/08/14 02:08:21;;;;;;;13.67;9.00;;;;;;;;;;4996361;28;20422;-78
2021/08/14 02:10:47;;;;;;;18.47;8.57;;;;;;;;;;4996273;28;20506;-78
2021/08/14 02:13:13;;;;;;;15.23;8.97;;;;;;;;;;4995926;28;20415;-77
2021/08/14 02:15:39;;;;;;;15.17;8.33;;;;;;;;;;4996047;28;20801;-78
2021/08/14 02:18:05;;;;;;;17.17;9.63;;;;;;;;;;4996338;28;20464;-79
2021/08/14 02:20:31;;;;;;;13.03;8.80;;;;;;;;;;4996275;28;20796;-78
2021/08/14 02:22:57;;;;;;;15.17;8.60;;;;;;;;;;4995936;28;20426;-77
2021/08/14 02:25:23;;;;;;;11.73;9.03;;;;;;;;;;4995785;28;20511;-79
2021/08/14 02:27:49;;;;;;;14.63;8.63;;;;;;;;;;4995930;28;20776;-77
2021/08/14 02:30:15;;;;;;;11.37;8.70;;;;;;;;;;4995940;28;20427;-78
2021/08/14 02:32:41;;;;;;;14.77;10.07;;;;;;;;;;4995813;28;20759;-78
2021/08/14 02:35:07;;;;;;;16.20;11.30;;;;;;;;;;4995575;28;20442;-78
2021/08/14 02:37:33;;;;;;;12.20;9.23;;;;;;;;;;4995927;28;20715;-77
2021/08/14 02:39:59;;;;;;;14.47;8.90;;;;;;;;;;4995673;28;20478;-79
2021/08/14 02:42:25;;;;;;;11.33;8.93;;;;;;;;;;4995906;28;20824;-77
2021/08/14 02:44:51;;;;;;;15.23;9.47;;;;;;;;;;4978198;28;20469;-77
2021/08/14 02:47:17;;;;;;;15.87;9.80;;;;;;;;;;4995719;28;20438;-77
2021/08/14 02:49:43;;;;;;;14.23;9.40;;;;;;;;;;4978138;28;20469;-77
2021/08/14 02:52:09;;;;;;;16.77;9.40;;;;;;;;;;4995508;28;20385;-78
2021/08/14 02:54:35;;;;;;;17.53;10.10;;;;;;;;;;4995137;28;20415;-78
2021/08/14 02:57:01;;;;;;;11.07;8.80;;;;;;;;;;4995472;28;20798;-77
2021/08/14 02:59:27;;;;;;;17.73;10.07;;;;;;;;;;4995371;28;20458;-77
2021/08/14 03:01:53;;;;;;;13.07;8.33;;;;;;;;;;4977984;28;20844;-78
2021/08/14 03:04:19;;;;;;;11.67;9.13;;;;;;;;;;4994786;28;20426;-76
2021/08/14 03:06:45;;;;;;;10.87;8.37;;;;;;;;;;4995238;28;20416;-77
2021/08/14 03:09:11;;;;;;;14.33;9.10;;;;;;;;;;4995126;28;20417;-77
2021/08/14 03:11:37;;;;;;;11.30;7.67;;;;;;;;;;4995207;28;20389;-77
2021/08/14 03:14:03;;;;;;;10.53;8.17;;;;;;;;;;4994742;28;20409;-76
2021/08/14 03:16:29;;;;;;;12.83;9.00;;;;;;;;;;4994804;28;20435;-78
2021/08/14 03:18:55;;;;;;;10.63;8.00;;;;;;;;;;4995175;28;20385;-77
2021/08/14 03:21:21;;;;;;;15.63;8.90;;;;;;;;;;4994955;28;20433;-75
2021/08/14 03:23:47;;;;;;;13.83;9.03;;;;;;;;;;4994583;28;20414;-77
2021/08/14 03:26:13;;;;;;;12.13;8.10;;;;;;;;;;4994442;28;20473;-77
2021/08/14 03:28:39;;;;;;;12.50;8.87;;;;;;;;;;4995025;28;20942;-77
2021/08/14 03:31:05;;;;;;;11.47;8.80;;;;;;;;;;4994888;28;20419;-77
2021/08/14 03:33:31;;;;;;;11.50;8.40;;;;;;;;;;4994641;28;20406;-77
2021/08/14 03:35:57;;;;;;;10.87;7.43;;;;;;;;;;4994758;28;20409;-77
2021/08/14 03:38:23;;;;;;;12.80;8.20;;;;;;;;;;4994964;28;20418;-77
2021/08/14 03:40:49;;;;;;;13.90;8.90;;;;;;;;;;4994685;28;20415;-76
2021/08/14 03:43:18;;;;;;;11.13;7.60;;;;;;;;;;4994345;28;20414;-77
2021/08/14 03:45:44;;;;;;;12.33;8.00;;;;;;;;;;4994371;28;20470;-76
2021/08/14 03:48:10;;;;;;;11.80;8.10;;;;;;;;;;4994665;28;20409;-76
2021/08/14 03:50:36;;;;;;;13.40;8.73;;;;;;;;;;4994521;28;20848;-77
2021/08/14 03:53:02;;;;;;;12.13;8.00;;;;;;;;;;4994257;28;20415;-78
2021/08/14 03:55:28;;;;;;;15.53;8.30;;;;;;;;;;4994443;28;20975;-78
2021/08/14 03:57:54;;;;;;;14.30;10.40;;;;;;;;;;4994536;28;20389;-79
2021/08/14 04:00:20;;;;;;;11.53;9.00;;;;;;;;;;4994384;28;20419;-78
2021/08/14 04:02:46;;;;;;;12.47;7.40;;;;;;;;;;4993849;28;20422;-79
2021/08/14 04:05:12;;;;;;;11.20;8.23;;;;;;;;;;4994131;28;20466;-79
2021/08/14 04:07:38;;;;;;;12.50;8.90;;;;;;;;;;4994206;28;20777;-79
2021/08/14 04:10:04;;;;;;;10.27;8.27;;;;;;;;;;4993708;28;20531;-79
2021/08/14 04:12:31;;;;;;;15.53;9.07;;;;;;;;;;4993887;28;20426;-80
2021/08/14 04:14:59;;;;;;;14.47;8.37;;;;;;;;;;4993564;28;20822;-80
2021/08/14 04:17:25;;;;;;;14.63;8.67;;;;;;;;;;4994194;28;20766;-79
2021/08/14 04:19:51;;;;;;;11.20;8.53;;;;;;;;;;4993962;28;20434;-79
2021/08/14 04:22:17;;;;;;;12.70;9.00;;;;;;;;;;4994179;28;20414;-79
2021/08/14 04:24:43;;;;;;;12.73;8.80;;;;;;;;;;4993536;28;20567;-79
2021/08/14 04:27:09;;;;;;;12.03;8.00;;;;;;;;;;4993894;28;20460;-80
2021/08/14 04:29:35;;;;;;;13.33;9.23;;;;;;;;;;4993941;28;20481;-79
2021/08/14 04:32:01;;;;;;;13.67;8.57;;;;;;;;;;4993934;28;20411;-78
2021/08/14 04:34:27;;;;;;;12.57;8.50;;;;;;;;;;4976176;28;20941;-78
2021/08/14 04:36:53;;;;;;;12.47;8.30;;;;;;;;;;4960277;28;20465;-79
2021/08/14 04:39:19;;;;;;;11.93;8.20;;;;;;;;;;4994043;28;20415;-78
2021/08/14 04:41:45;;;;;;;11.17;8.40;;;;;;;;;;4993975;28;20405;-78
2021/08/14 04:44:11;;;;;;;13.97;8.30;;;;;;;;;;4993523;28;20393;-77
2021/08/14 04:46:37;;;;;;;15.67;10.00;;;;;;;;;;4976336;28;20478;-78
2021/08/14 04:49:03;;;;;;;10.70;8.43;;;;;;;;;;4993822;28;20510;-79
2021/08/14 04:51:29;;;;;;;11.80;8.60;;;;;;;;;;4993844;28;20406;-77
2021/08/14 04:53:55;;;;;;;11.13;8.17;;;;;;;;;;4993462;28;20776;-77
2021/08/14 04:56:21;;;;;;;14.97;9.30;;;;;;;;;;4993547;28;20430;-77
2021/08/14 04:58:46;;;;;;;10.67;7.47;;;;;;;;;;4976169;28;20569;-78
2021/08/14 05:01:12;;;;;;;14.67;8.30;;;;;;;;;;4993411;28;20419;-78
2021/08/14 05:03:38;;;;;;;13.37;8.23;;;;;;;;;;4993310;28;20415;-78
2021/08/14 05:06:06;;;;;;;12.33;8.43;;;;;;;;;;4976260;28;20855;-79
2021/08/14 05:08:32;;;;;;;12.37;8.73;;;;;;;;;;4993520;28;20419;-78
2021/08/14 05:10:58;;;;;;;11.17;8.23;;;;;;;;;;4993433;28;20927;-78
2021/08/14 05:13:24;;;;;;;14.40;9.40;;;;;;;;;;4993166;28;20454;-77
2021/08/14 05:15:50;;;;;;;13.93;8.83;;;;;;;;;;4993358;28;20445;-78
2021/08/14 05:18:16;;;;;;;12.93;8.90;;;;;;;;;;4993456;28;20410;-77
2021/08/14 05:20:43;;;;;;;15.40;9.13;;;;;;;;;;4993379;28;20410;-78
2021/08/14 05:23:09;;;;;;;13.10;9.47;;;;;;;;;;4996795;28;20510;-78
2021/08/14 05:25:34;;;;;;;14.30;9.70;;;;;;;;;;4996761;28;20543;-78
2021/08/14 05:28:01;;;;;;;10.97;8.57;;;;;;;;;;4997132;28;20402;-78
2021/08/14 05:30:27;;;;;;;16.53;8.87;;;;;;;;;;4979573;28;20909;-78
2021/08/14 05:32:53;;;;;;;14.30;8.37;;;;;;;;;;4997066;28;20415;-78
2021/08/14 05:35:20;;;;;;;12.93;8.57;;;;;;;;;;4997160;28;20437;-77
2021/08/14 05:37:46;;;;;;;13.43;9.33;;;;;;;;;;4997055;28;20406;-77
2021/08/14 05:40:12;;;;;;;12.93;8.80;;;;;;;;;;4997080;28;20822;-78
2021/08/14 05:42:38;;;;;;;15.57;9.73;;;;;;;;;;4996893;28;20415;-77
2021/08/14 05:45:04;;;;;;;13.77;8.80;;;;;;;;;;4996438;28;20490;-79
2021/08/14 05:47:30;;;;;;;14.57;9.67;;;;;;;;;;4996689;28;20415;-78
2021/08/14 05:49:56;;;;;;;11.90;8.87;;;;;;;;;;4996688;28;20747;-78
2021/08/14 05:52:23;;;;;;;14.77;9.50;;;;;;;;;;4996804;28;20556;-77
2021/08/14 05:54:49;;;;;;;14.67;9.47;;;;;;;;;;4996247;28;20430;-79
2021/08/14 05:57:15;;;;;;;14.03;9.00;;;;;;;;;;4996584;28;20407;-79
2021/08/14 05:59:41;;;;;;;17.80;9.73;;;;;;;;;;4996311;28;20465;-78
2021/08/14 06:02:07;;;;;;;15.00;9.33;;;;;;;;;;4996551;28;20414;-77
2021/08/14 06:04:33;;;;;;;12.90;7.73;;;;;;;;;;4996023;28;20422;-78
2021/08/14 06:06:59;;;;;;;12.00;8.77;;;;;;;;;;4996485;28;20407;-79
2021/08/14 06:09:25;;;;;;;11.50;7.80;;;;;;;;;;4996165;28;20815;-79
2021/08/14 06:11:51;;;;;;;13.00;8.63;;;;;;;;;;4996183;28;20776;-78
2021/08/14 06:14:17;;;;;;;14.70;8.43;;;;;;;;;;4995858;28;20497;-79
2021/08/14 06:16:43;;;;;;;11.63;8.30;;;;;;;;;;4996188;28;20492;-77
2021/08/14 06:19:10;;;;;;;11.90;8.27;;;;;;;;;;4996124;28;20521;-78
2021/08/14 06:21:36;;;;;;;10.53;8.37;;;;;;;;;;4996090;28;20381;-79
2021/08/14 06:24:02;;;;;;;15.50;8.83;;;;;;;;;;4995623;28;20442;-77
2021/08/14 06:26:28;;;;;;;13.77;8.93;;;;;;;;;;4995862;28;20882;-80
2021/08/14 06:28:54;;;;;;;10.57;8.33;;;;;;;;;;4995987;28;20491;-78
2021/08/14 06:31:20;;;;;;;11.83;7.67;;;;;;;;;;4996216;28;20390;-77
2021/08/14 06:33:46;;;;;;;12.40;7.87;;;;;;;;;;4995159;28;20425;-78
2021/08/14 06:36:12;;;;;;;12.97;7.00;;;;;;;;;;4995849;28;20469;-78
2021/08/14 06:38:39;;;;;;;13.50;8.77;;;;;;;;;;4978649;28;20537;-79
2021/08/14 06:41:05;;;;;;;13.30;7.50;;;;;;;;;;4995866;28;20414;-79
2021/08/14 06:43:31;;;;;;;11.67;7.77;;;;;;;;;;4995357;28;20419;-78
2021/08/14 06:45:57;;;;;;;11.13;6.97;;;;;;;;;;4995732;28;20465;-78
2021/08/14 06:48:23;;;;;;;12.27;7.30;;;;;;;;;;4995935;28;20389;-79
2021/08/14 06:50:49;;;;;;;11.73;7.00;;;;;;;;;;4995560;28;20381;-79
2021/08/14 06:53:15;;;;;;;12.20;7.20;;;;;;;;;;4978136;28;20386;-77
2021/08/14 06:55:41;;;;;;;9.60;6.70;;;;;;;;;;4995433;28;20830;-79
2021/08/14 06:58:07;;;;;;;12.87;7.60;;;;;;;;;;4995377;28;20397;-79
2021/08/14 07:00:33;;;;;;;10.43;6.43;;;;;;;;;;4995472;28;20452;-78
2021/08/14 07:02:59;;;;;;;13.43;6.57;;;;;;;;;;4977855;28;20875;-79
2021/08/14 07:05:25;;;;;;;15.93;7.47;;;;;;;;;;4995165;28;20452;-79
2021/08/14 07:07:51;;;;;;;17.63;8.63;;;;;;;;;;4995147;28;20837;-80
2021/08/14 07:10:17;;;;;;;13.20;6.77;;;;;;;;;;4995031;28;20417;-79
2021/08/14 07:12:44;;;;;;;11.43;6.40;;;;;;;;;;4994899;28;20421;-81
2021/08/14 07:15:11;;;;;;;14.67;7.20;;;;;;;;;;4995012;28;20442;-77
2021/08/14 07:17:37;;;;;;;13.27;6.97;;;;;;;;;;4995156;28;20393;-78
2021/08/14 07:20:03;;;;;;;19.93;8.33;;;;;;;;;;4994809;28;20422;-81
2021/08/14 07:22:29;;;;;;;15.80;6.07;;;;;;;;;;4994915;28;20415;-79
2021/08/14 07:24:55;;;;;;;12.47;5.70;;;;;;;;;;4976976;28;20445;-79
2021/08/14 07:27:21;;;;;;;10.23;5.50;;;;;;;;;;4994902;28;20445;-77
2021/08/14 07:29:47;;;;;;;10.53;6.50;;;;;;;;;;4994715;28;20778;-79
2021/08/14 07:32:13;;;;;;;10.13;5.70;;;;;;;;;;4994701;28;20407;-76
2021/08/14 07:34:40;;;;;;;21.57;6.37;;;;;;;;;;4994359;28;20440;-77
2021/08/14 07:37:07;;;;;;;8.23;6.00;;;;;;;;;;4994789;28;20403;-76
2021/08/14 07:39:33;;;;;;;7.57;5.13;;;;;;;;;;4994936;28;20725;-76
2021/08/14 07:41:59;;;;;;;9.87;4.77;;;;;;;;;;4995017;28;20490;-77
2021/08/14 07:44:25;;;;;;;19.03;5.20;;;;;;;;;;4993523;28;20502;-76
2021/08/14 07:46:51;;;;;;;17.33;5.10;;;;;;;;;;4994613;28;20477;-77
2021/08/14 07:49:17;;;;;;;9.00;4.47;;;;;;;;;;4994467;28;20437;-76
2021/08/14 07:51:43;;;;;;;13.07;5.50;;;;;;;;;;4994436;28;20498;-75
2021/08/14 07:54:09;;;;;;;17.67;5.60;;;;;;;;;;4994325;28;20481;-76
2021/08/14 07:56:35;;;;;;;15.00;5.10;;;;;;;;;;4994234;28;20758;-76
2021/08/14 07:59:01;;;;;;;9.57;4.47;;;;;;;;;;4994538;28;20921;-76
2021/08/14 08:01:27;;;;;;;8.90;4.60;;;;;;;;;;4994314;28;20442;-76
2021/08/14 08:03:53;;;;;;;19.80;4.83;;;;;;;;;;4994133;28;20949;-76
2021/08/14 08:06:19;;;;;;;14.90;5.07;;;;;;;;;;4994036;28;20445;-76
2021/08/14 08:08:45;;;;;;;13.50;4.43;;;;;;;;;;4994201;28;20411;-76
2021/08/14 08:11:11;;;;;;;10.67;4.07;;;;;;;;;;4994039;28;20386;-76
2021/08/14 08:13:37;;;;;;;13.90;3.70;;;;;;;;;;4993746;28;20910;-76
2021/08/14 08:16:03;;;;;;;15.97;4.53;;;;;;;;;;4994098;28;20413;-76
2021/08/14 08:18:29;;;;;;;10.83;4.30;;;;;;;;;;4993929;28;20419;-77
2021/08/14 08:20:55;;;;;;;25.40;5.00;;;;;;;;;;4994004;28;20419;-76
2021/08/14 08:23:21;;;;;;;12.97;3.83;;;;;;;;;;4993374;28;20929;-76
2021/08/14 08:25:50;;;;;;;8.00;3.30;;;;;;;;;;4993678;28;20478;-76
2021/08/14 08:28:22;;;;;;;10.10;3.70;;;;;;;;;;4993927;28;20465;-76
2021/08/14 08:30:49;;;;;;;7.57;3.40;;;;;;;;;;4993762;28;20406;-76
2021/08/14 08:33:15;;;;;;;5.23;2.97;;;;;;;;;;4993587;28;20414;-76
2021/08/14 08:35:41;;;;;;;11.83;3.40;;;;;;;;;;4993796;28;20431;-76
2021/08/14 08:38:07;;;;;;;7.40;3.40;;;;;;;;;;4993911;28;20922;-76
2021/08/14 08:40:36;;;;;;;9.37;3.57;;;;;;;;;;4993447;28;20415;-76
2021/08/14 08:43:02;;;;;;;8.93;4.00;;;;;;;;;;4993452;28;20468;-76
2021/08/14 08:45:28;;;;;;;9.70;3.60;;;;;;;;;;4993443;28;20967;-76
2021/08/14 08:47:57;;;;;;;12.63;3.90;;;;;;;;;;4993810;28;20470;-77
2021/08/14 08:50:23;;;;;;;5.93;3.47;;;;;;;;;;4993986;28;20406;-76
2021/08/14 08:52:49;;;;;;;12.40;3.53;;;;;;;;;;4993585;28;20438;-77
2021/08/14 08:55:15;;;;;;;7.80;3.70;;;;;;;;;;4994458;28;20431;-78
2021/08/14 08:57:41;;;;;;;9.03;4.47;;;;;;;;;;4997871;28;20442;-77
2021/08/14 09:00:09;;;;;;;8.40;4.00;;;;;;;;;;4997781;28;20423;-76
2021/08/14 09:02:36;;;;;;;8.27;3.90;;;;;;;;;;4997620;28;20763;-77
2021/08/14 09:05:18;;;;;;;8.10;3.53;;;;;;;;;;4997068;28;20953;-77
2021/08/14 09:07:46;;;;;;;12.37;3.97;;;;;;;;;;4997683;28;20410;-77
2021/08/14 09:10:13;;;;;;;10.30;4.70;;;;;;;;;;4997503;28;20402;-77
2021/08/14 09:12:41;;;;;;;9.80;3.60;;;;;;;;;;4997205;28;20413;-78
2021/08/14 09:15:19;;;;;;;12.10;3.23;;;;;;;;;;4996948;28;20433;-77
2021/08/14 09:17:45;;;;;;;6.97;3.60;;;;;;;;;;4997231;28;20406;-76
2021/08/14 09:20:12;;;;;;;9.33;3.73;;;;;;;;;;4997452;28;20438;-76
2021/08/14 09:22:39;;;;;;;9.37;3.77;;;;;;;;;;4997135;28;20406;-77
2021/08/14 09:25:11;;;;;;;9.13;3.97;;;;;;;;;;4996482;28;20469;-77
2021/08/14 09:27:48;;;;;;;10.20;4.20;;;;;;;;;;4997107;28;20402;-77
2021/08/14 09:30:14;;;;;;;11.27;4.47;;;;;;;;;;4997174;28;20875;-77
2021/08/14 09:32:40;;;;;;;9.57;4.17;;;;;;;;;;4996898;28;20438;-77
2021/08/14 09:35:07;;;;;;;10.00;4.67;;;;;;;;;;4996481;28;20435;-77
2021/08/14 09:37:38;;;;;;;15.17;4.73;;;;;;;;;;4996902;28;20458;-77
2021/08/14 09:40:05;;;;;;;9.00;3.80;;;;;;;;;;4996945;28;20414;-77
2021/08/14 09:42:31;;;;;;;8.23;4.40;;;;;;;;;;4996844;28;20411;-76
2021/08/14 09:45:23;;;;;;;7.50;3.83;;;;;;;;;;4996385;28;20470;-77
2021/08/14 09:47:51;;;;;;;7.90;4.03;;;;;;;;;;4994052;28;20501;-76
2021/08/14 09:50:17;;;;;;;9.53;3.90;;;;;;;;;;4996636;28;20411;-79
2021/08/14 09:52:46;;;;;;;9.17;4.07;;;;;;;;;;4979247;28;20505;-78
2021/08/14 09:55:27;;;;;;;7.97;3.90;;;;;;;;;;4996413;28;20450;-80
2021/08/14 09:58:00;;;;;;;8.27;3.37;;;;;;;;;;4996695;28;20407;-80
2021/08/14 10:00:28;;;;;;;13.87;4.10;;;;;;;;;;4996497;28;20422;-78
2021/08/14 10:02:55;;;;;;;10.73;3.00;;;;;;;;;;4996022;28;20411;-79
2021/08/14 10:05:21;;;;;;;8.03;3.93;;;;;;;;;;4996365;28;20493;-80
2021/08/14 10:07:47;;;;;;;5.60;3.60;;;;;;;;;;4995716;28;20418;-81
2021/08/14 10:10:13;;;;;;;12.37;3.60;;;;;;;;;;4996451;28;20410;-78
2021/08/14 10:12:39;;;;;;;5.53;3.87;;;;;;;;;;4979041;28;20468;-78
2021/08/14 10:15:05;;;;;;;6.77;3.53;;;;;;;;;;4995894;28;20434;-78
2021/08/14 10:17:34;;;;;;;8.10;4.17;;;;;;;;;;4996087;28;20472;-78
2021/08/14 10:20:00;;;;;;;9.10;3.37;;;;;;;;;;4996093;28;20411;-78
2021/08/14 10:22:26;;;;;;;6.83;2.90;;;;;;;;;;4996128;28;20417;-78
2021/08/14 10:24:55;;;;;;;15.20;4.40;;;;;;;;;;4995694;28;20462;-78
2021/08/14 10:27:22;;;;;;;7.27;4.00;;;;;;;;;;4995892;28;20438;-78
2021/08/14 10:29:50;;;;;;;11.13;3.83;;;;;;;;;;4978675;28;20454;-78
2021/08/14 10:32:31;;;;;;;7.50;3.17;;;;;;;;;;4996329;28;20410;-78
2021/08/14 10:35:23;;;;;;;9.43;3.47;;;;;;;;;;4995701;28;20481;-77
2021/08/14 10:37:51;;;;;;;6.10;3.23;;;;;;;;;;4992751;28;20419;-77
2021/08/14 10:40:18;;;;;;;8.17;3.57;;;;;;;;;;4995853;28;20982;-78
2021/08/14 10:42:53;;;;;;;8.13;3.60;;;;;;;;;;4995522;28;20414;-77
2021/08/14 10:45:21;;;;;;;4.93;3.50;;;;;;;;;;4995884;28;20962;-77
2021/08/14 10:47:48;;;;;;;9.40;3.97;;;;;;;;;;4995758;28;20414;-76
2021/08/14 10:50:46;;;;;;;9.60;3.50;;;;;;;;;;4995989;28;20896;-76
2021/08/14 10:53:12;;;;;;;5.47;2.93;;;;;;;;;;4962547;28;20510;-76
2021/08/14 10:55:38;;;;;;;7.77;3.27;;;;;;;;;;4995700;28;20477;-76
2021/08/14 10:58:23;;;;;;;9.50;3.10;;;;;;;;;;4995994;28;20411;-77
2021/08/14 11:00:50;;;;;;;10.80;3.60;;;;;;;;;;4995527;28;20410;-76
2021/08/14 11:03:18;;;;;;;6.87;3.20;;;;;;;;;;4977691;28;20762;-77
2021/08/14 11:05:45;;;;;;;5.73;3.30;;;;;;;;;;4995239;28;20473;-78
2021/08/14 11:08:24;;;;;;;6.83;3.37;;;;;;;;;;4995364;28;20418;-76
2021/08/14 11:10:50;;;;;;;8.00;3.70;;;;;;;;;;4995360;28;20394;-76
2021/08/14 11:13:32;;;;;;;6.83;3.47;;;;;;;;;;4994525;28;20442;-76
2021/08/14 11:15:58;;;;;;;11.03;3.00;;;;;;;;;;4994443;28;20486;-76
2021/08/14 11:18:43;;;;;;;9.00;3.77;;;;;;;;;;4994425;28;20461;-75
2021/08/14 11:21:09;;;;;;;6.07;3.60;;;;;;;;;;4995036;28;20895;-76
2021/08/14 11:23:35;;;;;;;7.93;3.60;;;;;;;;;;4994535;28;20407;-76
2021/08/14 11:26:01;;;;;;;6.40;3.33;;;;;;;;;;4994461;28;20479;-76
2021/08/14 11:28:27;;;;;;;6.63;3.50;;;;;;;;;;4994551;28;20413;-75
2021/08/14 11:31:07;;;;;;;5.00;3.00;;;;;;;;;;4994817;28;20445;-76
2021/08/14 11:33:33;;;;;;;10.50;3.10;;;;;;;;;;4994855;28;20466;-75
2021/08/14 11:36:03;;;;;;;5.37;2.87;;;;;;;;;;4994645;28;20442;-75
2021/08/14 11:38:33;;;;;;;6.97;3.27;;;;;;;;;;4994634;28;20845;-75
2021/08/14 11:41:00;;;;;;;12.23;3.60;;;;;;;;;;4994844;28;20465;-78
2021/08/14 11:43:31;;;;;;;7.70;3.33;;;;;;;;;;4994451;28;20414;-78
2021/08/14 11:46:03;;;;;;;11.20;3.30;;;;;;;;;;4994455;28;20465;-77
2021/08/14 11:48:37;;;;;;;9.30;3.30;;;;;;;;;;4994629;28;20399;-77
2021/08/14 11:51:03;;;;;;;4.87;3.30;;;;;;;;;;4994649;28;20457;-77
2021/08/14 11:53:29;;;;;;;10.87;3.23;;;;;;;;;;4994211;28;20490;-77
2021/08/14 11:56:05;;;;;;;6.70;3.17;;;;;;;;;;4994524;28;20497;-75
2021/08/14 11:58:31;;;;;;;5.20;3.03;;;;;;;;;;4994288;28;20415;-77
2021/08/14 12:00:57;;;;;;;6.13;3.47;;;;;;;;;;4994263;28;20421;-76
2021/08/14 12:03:24;;;;;;;5.80;2.90;;;;;;;;;;4993921;28;20418;-77
2021/08/14 12:05:50;;;;;;;8.03;3.07;;;;;;;;;;4994404;28;20470;-81
2021/08/14 12:08:31;;;;;;;4.80;2.77;;;;;;;;;;4994464;28;20406;-79
2021/08/14 12:10:58;;;;;;;7.30;3.23;;;;;;;;;;4994237;28;20438;-78
2021/08/14 12:13:24;;;;;;;11.23;3.67;;;;;;;;;;4993739;28;20418;-79
2021/08/14 12:15:50;;;;;;;5.57;3.23;;;;;;;;;;4976614;28;20604;-81
2021/08/14 12:18:33;;;;;;;8.47;3.23;;;;;;;;;;4976634;28;20434;-77
2021/08/14 12:21:00;;;;;;;6.07;2.80;;;;;;;;;;4993977;28;20418;-77
2021/08/14 12:23:27;;;;;;;5.80;2.70;;;;;;;;;;4993483;28;20458;-77
2021/08/14 12:25:57;;;;;;;4.80;2.67;;;;;;;;;;4993661;28;20823;-78
2021/08/14 12:28:30;;;;;;;3.73;2.73;;;;;;;;;;4993668;28;20665;-76
2021/08/14 12:30:57;;;;;;;6.90;2.90;;;;;;;;;;4993534;28;20435;-77
2021/08/14 12:33:27;;;;;;;7.63;3.40;;;;;;;;;;4993563;28;20407;-77
2021/08/14 12:36:03;;;;;;;4.77;2.63;;;;;;;;;;4994178;28;20434;-79
2021/08/14 12:38:30;;;;;;;5.90;3.67;;;;;;;;;;4993612;28;20402;-78
2021/08/14 12:40:57;;;;;;;3.93;3.33;;;;;;;;;;4993643;28;20425;-79
2021/08/14 12:43:24;;;;;;;4.83;3.00;;;;;;;;;;4993496;28;20442;-78
2021/08/14 12:45:50;;;;;;;7.40;3.40;;;;;;;;;;4993683;28;20470;-78
2021/08/14 12:48:17;;;;;;;7.13;2.63;;;;;;;;;;4993678;28;20812;-78
2021/08/14 12:50:43;;;;;;;7.13;3.27;;;;;;;;;;4993609;28;20438;-77
2021/08/14 12:53:10;;;;;;;10.80;3.17;;;;;;;;;;4993420;28;20469;-77
2021/08/14 12:55:39;;;;;;;4.13;2.90;;;;;;;;;;4993456;28;20458;-77
2021/08/14 12:58:12;;;;;;;4.97;3.07;;;;;;;;;;4993606;28;20918;-78
2021/08/14 13:00:40;;;;;;;3.53;2.53;;;;;;;;;;4993255;28;20421;-78
2021/08/14 13:03:07;;;;;;;4.87;3.23;;;;;;;;;;4993420;28;20418;-78
2021/08/14 13:05:33;;;;;;;5.33;3.27;;;;;;;;;;4993580;28;20470;-78
2021/08/14 13:07:59;;;;;;;4.80;2.87;;;;;;;;;;4993455;28;20554;-78
2021/08/14 13:10:25;;;;;;;5.73;2.40;;;;;;;;;;4993609;28;20414;-77
2021/08/14 13:12:55;;;;;;;4.03;2.50;;;;;;;;;;4992969;28;20473;-78
2021/08/14 13:15:22;;;;;;;3.60;2.40;;;;;;;;;;4993369;28;20437;-77
2021/08/14 13:17:48;;;;;;;4.60;2.73;;;;;;;;;;4993465;28;20415;-77
2021/08/14 13:20:15;;;;;;;6.97;2.87;;;;;;;;;;4993406;28;20411;-77
2021/08/14 13:22:42;;;;;;;4.90;3.03;;;;;;;;;;4993247;28;20503;-78
2021/08/14 13:25:08;;;;;;;4.10;2.20;;;;;;;;;;4992776;28;20500;-77
2021/08/14 13:27:34;;;;;;;6.47;2.90;;;;;;;;;;4993425;28;20450;-77
2021/08/14 13:30:01;;;;;;;6.03;3.33;;;;;;;;;;4993277;28;20447;-78
2021/08/14 13:32:27;;;;;;;7.53;3.20;;;;;;;;;;4993403;28;20411;-77
2021/08/14 13:34:53;;;;;;;6.87;2.60;;;;;;;;;;4992879;28;20513;-77
2021/08/14 13:37:19;;;;;;;4.53;2.87;;;;;;;;;;4993098;28;20415;-77
2021/08/14 13:39:45;;;;;;;4.97;3.03;;;;;;;;;;4993434;28;20415;-77
2021/08/14 13:42:11;;;;;;;6.43;3.10;;;;;;;;;;4994032;28;20434;-77
2021/08/14 13:44:37;;;;;;;3.80;3.30;;;;;;;;;;4996556;28;20411;-77
2021/08/14 13:47:03;;;;;;;3.37;2.47;;;;;;;;;;4996651;28;20465;-77
2021/08/14 13:49:29;;;;;;;4.60;2.50;;;;;;;;;;4996729;28;20458;-78
2021/08/14 13:51:55;;;;;;;4.70;2.87;;;;;;;;;;4996786;28;20823;-77
2021/08/14 13:54:21;;;;;;;4.10;2.83;;;;;;;;;;4996416;28;20422;-77
2021/08/14 13:56:47;;;;;;;6.80;2.93;;;;;;;;;;4996833;28;20458;-79
2021/08/14 13:59:13;;;;;;;7.00;2.43;;;;;;;;;;4996521;28;20414;-78
2021/08/14 14:01:39;;;;;;;6.33;2.90;;;;;;;;;;4996561;28;20472;-78
2021/08/14 14:04:05;;;;;;;4.07;2.73;;;;;;;;;;4996332;28;20757;-77
2021/08/14 14:06:31;;;;;;;6.50;2.80;;;;;;;;;;4996308;28;20512;-78
2021/08/14 14:08:56;;;;;;;4.17;2.50;;;;;;;;;;4996401;28;20417;-77
2021/08/14 14:11:23;;;;;;;4.50;2.70;;;;;;;;;;4996201;28;20506;-77
2021/08/14 14:13:51;;;;;;;6.50;2.80;;;;;;;;;;4995739;28;20414;-77
2021/08/14 14:16:17;;;;;;;6.43;3.67;;;;;;;;;;4996262;28;20530;-76
2021/08/14 14:18:43;;;;;;;7.20;3.57;;;;;;;;;;4996336;28;20505;-78
2021/08/14 14:21:10;;;;;;;5.10;3.20;;;;;;;;;;4996214;28;20797;-77
2021/08/14 14:23:36;;;;;;;7.53;3.23;;;;;;;;;;4995794;28;20410;-78
2021/08/14 14:26:02;;;;;;;5.27;3.23;;;;;;;;;;4995849;28;20477;-78
2021/08/14 14:28:28;;;;;;;6.47;3.10;;;;;;;;;;4996221;28;20407;-78
2021/08/14 14:30:54;;;;;;;6.13;3.33;;;;;;;;;;4996085;28;20756;-77
2021/08/14 14:33:20;;;;;;;16.33;3.10;;;;;;;;;;4995619;28;20473;-78
2021/08/14 14:35:46;;;;;;;5.87;3.80;;;;;;;;;;4995792;28;20447;-78